sensor_id;sensor_type;location;lat;lon;timestamp;temperature;humidity
71096;DHT22;58753;49.440;11.126;2023-08-20T00:00:15;22.03;84.24
71096;DHT22;58753;49.440;11.126;2023-08-20T00:02:46;22.00;84.41
71096;DHT22;58753;49.440;11.126;2023-08-20T00:05:12;21.94;84.61
71096;DHT22;58753;49.440;11.126;2023-08-20T00:07:39;21.86;84.64
71096;DHT22;58753;49.440;11.126;2023-08-20T00:10:05;21.80;84.66
71096;DHT22;58753;49.440;11.126;2023-08-20T00:12:31;21.77;84.90
71096;DHT22;58753;49.440;11.126;2023-08-20T00:14:58;21.71;85.11
71096;DHT22;58753;49.440;11.126;2023-08-20T00:17:30;21.69;85.21
71096;DHT22;58753;49.440;11.126;2023-08-20T00:19:56;21.67;85.39
71096;DHT22;58753;49.440;11.126;2023-08-20T00:22:23;21.64;85.43
71096;DHT22;58753;49.440;11.126;2023-08-20T00:24:49;21.60;85.61
71096;DHT22;58753;49.440;11.126;2023-08-20T00:27:15;21.54;85.57
71096;DHT22;58753;49.440;11.126;2023-08-20T00:29:40;21.56;85.81
71096;DHT22;58753;49.440;11.126;2023-08-20T00:32:06;21.54;85.80
71096;DHT22;58753;49.440;11.126;2023-08-20T00:34:31;21.54;85.89
71096;DHT22;58753;49.440;11.126;2023-08-20T00:36:57;21.54;85.91
71096;DHT22;58753;49.440;11.126;2023-08-20T00:39:22;21.53;85.98
71096;DHT22;58753;49.440;11.126;2023-08-20T00:41:48;21.53;86.06
71096;DHT22;58753;49.440;11.126;2023-08-20T00:44:13;21.53;85.98
71096;DHT22;58753;49.440;11.126;2023-08-20T00:46:39;21.49;85.92
71096;DHT22;58753;49.440;11.126;2023-08-20T00:49:04;21.47;85.85
71096;DHT22;58753;49.440;11.126;2023-08-20T00:51:32;21.45;85.93
71096;DHT22;58753;49.440;11.126;2023-08-20T00:53:59;21.42;86.03
71096;DHT22;58753;49.440;11.126;2023-08-20T00:56:25;21.42;86.05
71096;DHT22;58753;49.440;11.126;2023-08-20T00:58:50;21.39;86.08
71096;DHT22;58753;49.440;11.126;2023-08-20T01:01:15;21.36;86.02
71096;DHT22;58753;49.440;11.126;2023-08-20T01:03:41;21.33;86.18
71096;DHT22;58753;49.440;11.126;2023-08-20T01:06:23;21.32;86.20
71096;DHT22;58753;49.440;11.126;2023-08-20T01:08:57;21.26;86.29
71096;DHT22;58753;49.440;11.126;2023-08-20T01:11:29;21.25;86.40
71096;DHT22;58753;49.440;11.126;2023-08-20T01:13:58;21.26;86.45
71096;DHT22;58753;49.440;11.126;2023-08-20T01:16:23;21.22;86.48
71096;DHT22;58753;49.440;11.126;2023-08-20T01:18:49;21.19;86.47
71096;DHT22;58753;49.440;11.126;2023-08-20T01:21:30;21.18;86.66
71096;DHT22;58753;49.440;11.126;2023-08-20T01:29:55;21.12;86.79
71096;DHT22;58753;49.440;11.126;2023-08-20T01:32:22;21.12;86.69
71096;DHT22;58753;49.440;11.126;2023-08-20T01:34:48;21.08;86.86
71096;DHT22;58753;49.440;11.126;2023-08-20T01:37:14;21.06;86.87
71096;DHT22;58753;49.440;11.126;2023-08-20T01:39:39;21.06;86.92
71096;DHT22;58753;49.440;11.126;2023-08-20T01:42:06;21.06;86.80
71096;DHT22;58753;49.440;11.126;2023-08-20T01:44:31;21.05;86.94
71096;DHT22;58753;49.440;11.126;2023-08-20T01:46:57;21.00;86.96
71096;DHT22;58753;49.440;11.126;2023-08-20T01:49:23;20.96;87.04
71096;DHT22;58753;49.440;11.126;2023-08-20T01:51:48;20.95;87.12
71096;DHT22;58753;49.440;11.126;2023-08-20T01:54:14;20.89;87.12
71096;DHT22;58753;49.440;11.126;2023-08-20T01:56:39;20.88;87.20
71096;DHT22;58753;49.440;11.126;2023-08-20T01:59:05;20.84;87.19
71096;DHT22;58753;49.440;11.126;2023-08-20T02:01:30;20.78;87.05
71096;DHT22;58753;49.440;11.126;2023-08-20T02:03:56;20.72;87.14
71096;DHT22;58753;49.440;11.126;2023-08-20T02:06:21;20.69;87.11
71096;DHT22;58753;49.440;11.126;2023-08-20T02:08:47;20.67;87.28
71096;DHT22;58753;49.440;11.126;2023-08-20T02:11:12;20.64;87.27
71096;DHT22;58753;49.440;11.126;2023-08-20T02:13:38;20.61;87.41
71096;DHT22;58753;49.440;11.126;2023-08-20T02:16:04;20.59;87.41
71096;DHT22;58753;49.440;11.126;2023-08-20T02:18:30;20.57;87.38
71096;DHT22;58753;49.440;11.126;2023-08-20T02:20:56;20.54;87.46
71096;DHT22;58753;49.440;11.126;2023-08-20T02:23:22;20.49;87.56
71096;DHT22;58753;49.440;11.126;2023-08-20T02:25:48;20.48;87.61
71096;DHT22;58753;49.440;11.126;2023-08-20T02:28:14;20.44;87.68
71096;DHT22;58753;49.440;11.126;2023-08-20T02:30:43;20.41;87.77
71096;DHT22;58753;49.440;11.126;2023-08-20T02:33:09;20.38;87.77
71096;DHT22;58753;49.440;11.126;2023-08-20T02:35:36;20.36;87.77
71096;DHT22;58753;49.440;11.126;2023-08-20T02:38:01;20.36;87.86
71096;DHT22;58753;49.440;11.126;2023-08-20T02:40:27;20.30;87.68
71096;DHT22;58753;49.440;11.126;2023-08-20T02:42:52;20.30;87.87
71096;DHT22;58753;49.440;11.126;2023-08-20T02:45:17;20.24;87.97
71096;DHT22;58753;49.440;11.126;2023-08-20T02:47:43;20.23;88.08
71096;DHT22;58753;49.440;11.126;2023-08-20T02:50:08;20.18;88.10
71096;DHT22;58753;49.440;11.126;2023-08-20T02:52:34;20.17;88.15
71096;DHT22;58753;49.440;11.126;2023-08-20T02:54:59;20.14;88.06
71096;DHT22;58753;49.440;11.126;2023-08-20T02:57:25;20.13;88.14
71096;DHT22;58753;49.440;11.126;2023-08-20T02:59:51;20.12;88.27
71096;DHT22;58753;49.440;11.126;2023-08-20T03:02:16;20.06;88.11
71096;DHT22;58753;49.440;11.126;2023-08-20T03:04:42;20.00;88.13
71096;DHT22;58753;49.440;11.126;2023-08-20T03:07:08;19.97;88.34
71096;DHT22;58753;49.440;11.126;2023-08-20T03:09:34;19.94;88.37
71096;DHT22;58753;49.440;11.126;2023-08-20T03:11:59;19.96;88.56
71096;DHT22;58753;49.440;11.126;2023-08-20T03:14:24;19.92;88.41
71096;DHT22;58753;49.440;11.126;2023-08-20T03:16:50;19.92;88.45
71096;DHT22;58753;49.440;11.126;2023-08-20T03:19:15;19.84;88.54
71096;DHT22;58753;49.440;11.126;2023-08-20T03:21:41;19.83;88.47
71096;DHT22;58753;49.440;11.126;2023-08-20T03:24:07;19.79;88.73
71096;DHT22;58753;49.440;11.126;2023-08-20T03:26:33;19.76;88.67
71096;DHT22;58753;49.440;11.126;2023-08-20T03:28:58;19.76;88.67
71096;DHT22;58753;49.440;11.126;2023-08-20T03:31:24;19.76;88.60
71096;DHT22;58753;49.440;11.126;2023-08-20T03:33:49;19.70;88.71
71096;DHT22;58753;49.440;11.126;2023-08-20T03:36:15;19.69;88.78
71096;DHT22;58753;49.440;11.126;2023-08-20T03:38:40;19.66;88.90
71096;DHT22;58753;49.440;11.126;2023-08-20T03:41:06;19.69;88.95
71096;DHT22;58753;49.440;11.126;2023-08-20T03:43:31;19.66;88.90
71096;DHT22;58753;49.440;11.126;2023-08-20T03:45:57;19.62;88.78
71096;DHT22;58753;49.440;11.126;2023-08-20T03:48:22;19.62;88.96
71096;DHT22;58753;49.440;11.126;2023-08-20T03:50:47;19.63;89.06
71096;DHT22;58753;49.440;11.126;2023-08-20T03:53:13;19.63;88.81
71096;DHT22;58753;49.440;11.126;2023-08-20T03:55:38;19.59;89.00
71096;DHT22;58753;49.440;11.126;2023-08-20T03:58:03;19.55;89.07
71096;DHT22;58753;49.440;11.126;2023-08-20T04:00:29;19.53;89.09
71096;DHT22;58753;49.440;11.126;2023-08-20T04:02:54;19.51;89.18
71096;DHT22;58753;49.440;11.126;2023-08-20T04:05:20;19.48;89.09
71096;DHT22;58753;49.440;11.126;2023-08-20T04:07:46;19.45;89.10
71096;DHT22;58753;49.440;11.126;2023-08-20T04:10:11;19.42;89.35
71096;DHT22;58753;49.440;11.126;2023-08-20T04:12:37;19.48;89.58
71096;DHT22;58753;49.440;11.126;2023-08-20T04:15:02;19.46;89.52
71096;DHT22;58753;49.440;11.126;2023-08-20T04:17:28;19.45;89.49
71096;DHT22;58753;49.440;11.126;2023-08-20T04:19:53;19.46;89.53
71096;DHT22;58753;49.440;11.126;2023-08-20T04:22:19;19.48;89.62
71096;DHT22;58753;49.440;11.126;2023-08-20T04:24:44;19.49;89.58
71096;DHT22;58753;49.440;11.126;2023-08-20T04:27:09;19.48;89.61
71096;DHT22;58753;49.440;11.126;2023-08-20T04:29:35;19.46;89.53
71096;DHT22;58753;49.440;11.126;2023-08-20T04:32:00;19.48;89.63
71096;DHT22;58753;49.440;11.126;2023-08-20T04:34:26;19.46;89.62
71096;DHT22;58753;49.440;11.126;2023-08-20T04:36:51;19.43;89.54
71096;DHT22;58753;49.440;11.126;2023-08-20T04:39:18;19.43;89.53
71096;DHT22;58753;49.440;11.126;2023-08-20T04:41:43;19.41;89.70
71096;DHT22;58753;49.440;11.126;2023-08-20T04:44:09;19.43;89.68
71096;DHT22;58753;49.440;11.126;2023-08-20T04:46:34;19.43;89.62
71096;DHT22;58753;49.440;11.126;2023-08-20T04:49:00;19.39;89.50
71096;DHT22;58753;49.440;11.126;2023-08-20T04:51:25;19.42;89.78
71096;DHT22;58753;49.440;11.126;2023-08-20T04:53:51;19.43;89.68
71096;DHT22;58753;49.440;11.126;2023-08-20T04:56:16;19.45;89.63
71096;DHT22;58753;49.440;11.126;2023-08-20T04:58:42;19.42;89.75
71096;DHT22;58753;49.440;11.126;2023-08-20T05:01:07;19.43;89.89
71096;DHT22;58753;49.440;11.126;2023-08-20T05:03:34;19.51;89.97
71096;DHT22;58753;49.440;11.126;2023-08-20T05:05:59;19.53;89.95
71096;DHT22;58753;49.440;11.126;2023-08-20T05:08:25;19.58;89.90
71096;DHT22;58753;49.440;11.126;2023-08-20T05:10:50;19.56;89.59
71096;DHT22;58753;49.440;11.126;2023-08-20T05:13:17;19.59;89.81
71096;DHT22;58753;49.440;11.126;2023-08-20T05:15:42;19.65;89.85
71096;DHT22;58753;49.440;11.126;2023-08-20T05:18:08;19.67;89.75
71096;DHT22;58753;49.440;11.126;2023-08-20T05:20:33;19.67;89.75
71096;DHT22;58753;49.440;11.126;2023-08-20T05:22:59;19.73;89.82
71096;DHT22;58753;49.440;11.126;2023-08-20T05:25:24;19.79;89.81
71096;DHT22;58753;49.440;11.126;2023-08-20T05:27:50;19.82;89.77
71096;DHT22;58753;49.440;11.126;2023-08-20T05:30:15;19.87;89.79
71096;DHT22;58753;49.440;11.126;2023-08-20T05:32:40;19.93;89.83
71096;DHT22;58753;49.440;11.126;2023-08-20T05:35:06;20.01;89.79
71096;DHT22;58753;49.440;11.126;2023-08-20T05:37:31;20.09;89.60
71096;DHT22;58753;49.440;11.126;2023-08-20T05:39:57;20.13;89.57
71096;DHT22;58753;49.440;11.126;2023-08-20T05:42:22;20.17;89.48
71096;DHT22;58753;49.440;11.126;2023-08-20T05:44:48;20.26;89.46
71096;DHT22;58753;49.440;11.126;2023-08-20T05:47:13;20.33;89.49
71096;DHT22;58753;49.440;11.126;2023-08-20T05:49:38;20.41;89.38
71096;DHT22;58753;49.440;11.126;2023-08-20T05:52:04;20.45;89.35
71096;DHT22;58753;49.440;11.126;2023-08-20T05:54:29;20.51;89.05
71096;DHT22;58753;49.440;11.126;2023-08-20T05:56:56;20.58;89.13
71096;DHT22;58753;49.440;11.126;2023-08-20T05:59:22;20.63;89.02
71096;DHT22;58753;49.440;11.126;2023-08-20T06:01:48;20.67;88.94
71096;DHT22;58753;49.440;11.126;2023-08-20T06:04:13;20.69;88.84
71096;DHT22;58753;49.440;11.126;2023-08-20T06:06:38;20.78;88.80
71096;DHT22;58753;49.440;11.126;2023-08-20T06:09:05;20.81;88.75
71096;DHT22;58753;49.440;11.126;2023-08-20T06:11:30;20.88;88.60
71096;DHT22;58753;49.440;11.126;2023-08-20T06:13:56;20.95;88.47
71096;DHT22;58753;49.440;11.126;2023-08-20T06:16:21;21.00;88.36
71096;DHT22;58753;49.440;11.126;2023-08-20T06:18:50;21.08;88.29
71096;DHT22;58753;49.440;11.126;2023-08-20T06:21:15;21.15;88.12
71096;DHT22;58753;49.440;11.126;2023-08-20T06:23:41;21.19;87.79
71096;DHT22;58753;49.440;11.126;2023-08-20T06:26:06;21.22;87.71
71096;DHT22;58753;49.440;11.126;2023-08-20T06:28:31;21.29;87.35
71096;DHT22;58753;49.440;11.126;2023-08-20T06:30:57;21.38;87.33
71096;DHT22;58753;49.440;11.126;2023-08-20T06:33:22;21.42;86.99
71096;DHT22;58753;49.440;11.126;2023-08-20T06:35:48;21.49;86.97
71096;DHT22;58753;49.440;11.126;2023-08-20T06:38:13;21.59;86.86
71096;DHT22;58753;49.440;11.126;2023-08-20T06:40:39;21.64;86.68
71096;DHT22;58753;49.440;11.126;2023-08-20T06:43:05;21.71;86.51
71096;DHT22;58753;49.440;11.126;2023-08-20T06:45:30;21.80;86.44
71096;DHT22;58753;49.440;11.126;2023-08-20T06:47:56;21.87;86.29
71096;DHT22;58753;49.440;11.126;2023-08-20T06:50:22;21.91;86.19
71096;DHT22;58753;49.440;11.126;2023-08-20T06:52:48;21.96;86.06
71096;DHT22;58753;49.440;11.126;2023-08-20T06:55:13;22.00;85.76
71096;DHT22;58753;49.440;11.126;2023-08-20T06:57:39;22.04;85.68
71096;DHT22;58753;49.440;11.126;2023-08-20T07:00:05;22.05;85.51
71096;DHT22;58753;49.440;11.126;2023-08-20T07:02:30;22.13;85.46
71096;DHT22;58753;49.440;11.126;2023-08-20T07:04:56;22.17;85.24
71096;DHT22;58753;49.440;11.126;2023-08-20T07:07:21;22.25;85.14
71096;DHT22;58753;49.440;11.126;2023-08-20T07:09:47;22.35;85.01
71096;DHT22;58753;49.440;11.126;2023-08-20T07:12:12;22.43;84.72
71096;DHT22;58753;49.440;11.126;2023-08-20T07:14:38;22.45;84.16
71096;DHT22;58753;49.440;11.126;2023-08-20T07:17:03;22.48;84.16
71096;DHT22;58753;49.440;11.126;2023-08-20T07:19:30;22.56;83.90
71096;DHT22;58753;49.440;11.126;2023-08-20T07:21:55;22.64;83.67
71096;DHT22;58753;49.440;11.126;2023-08-20T07:24:21;22.75;83.50
71096;DHT22;58753;49.440;11.126;2023-08-20T07:26:54;22.84;83.21
71096;DHT22;58753;49.440;11.126;2023-08-20T07:29:26;22.98;83.00
71096;DHT22;58753;49.440;11.126;2023-08-20T07:31:51;23.05;82.67
71096;DHT22;58753;49.440;11.126;2023-08-20T07:34:17;23.09;82.40
71096;DHT22;58753;49.440;11.126;2023-08-20T07:36:43;23.15;82.02
71096;DHT22;58753;49.440;11.126;2023-08-20T07:39:09;23.17;81.71
71096;DHT22;58753;49.440;11.126;2023-08-20T07:41:34;23.24;81.37
71096;DHT22;58753;49.440;11.126;2023-08-20T07:44:00;23.31;81.04
71096;DHT22;58753;49.440;11.126;2023-08-20T07:46:25;23.43;80.68
71096;DHT22;58753;49.440;11.126;2023-08-20T07:48:51;23.50;80.27
71096;DHT22;58753;49.440;11.126;2023-08-20T07:51:16;23.61;79.98
71096;DHT22;58753;49.440;11.126;2023-08-20T07:53:42;23.68;79.73
71096;DHT22;58753;49.440;11.126;2023-08-20T07:56:07;23.82;78.72
71096;DHT22;58753;49.440;11.126;2023-08-20T07:58:34;24.01;77.59
71096;DHT22;58753;49.440;11.126;2023-08-20T08:00:59;24.17;77.13
71096;DHT22;58753;49.440;11.126;2023-08-20T08:03:25;24.31;76.39
71096;DHT22;58753;49.440;11.126;2023-08-20T08:05:54;24.41;75.95
71096;DHT22;58753;49.440;11.126;2023-08-20T08:08:21;24.48;75.34
71096;DHT22;58753;49.440;11.126;2023-08-20T08:10:47;24.53;74.72
71096;DHT22;58753;49.440;11.126;2023-08-20T08:13:19;24.55;74.18
71096;DHT22;58753;49.440;11.126;2023-08-20T08:15:46;24.63;73.71
71096;DHT22;58753;49.440;11.126;2023-08-20T08:18:11;24.75;73.41
71096;DHT22;58753;49.440;11.126;2023-08-20T08:20:40;24.79;73.01
71096;DHT22;58753;49.440;11.126;2023-08-20T08:23:05;24.87;72.76
71096;DHT22;58753;49.440;11.126;2023-08-20T08:25:31;24.97;72.14
71096;DHT22;58753;49.440;11.126;2023-08-20T08:27:57;25.10;71.79
71096;DHT22;58753;49.440;11.126;2023-08-20T08:30:23;25.14;71.51
71096;DHT22;58753;49.440;11.126;2023-08-20T08:32:49;25.26;71.20
71096;DHT22;58753;49.440;11.126;2023-08-20T08:35:14;25.34;70.89
71096;DHT22;58753;49.440;11.126;2023-08-20T08:37:40;25.46;70.50
71096;DHT22;58753;49.440;11.126;2023-08-20T08:40:06;25.54;70.25
71096;DHT22;58753;49.440;11.126;2023-08-20T08:42:34;25.63;69.90
71096;DHT22;58753;49.440;11.126;2023-08-20T08:45:00;25.75;69.18
71096;DHT22;58753;49.440;11.126;2023-08-20T08:47:26;25.95;68.33
71096;DHT22;58753;49.440;11.126;2023-08-20T08:49:55;26.18;67.53
71096;DHT22;58753;49.440;11.126;2023-08-20T08:52:22;26.26;67.00
71096;DHT22;58753;49.440;11.126;2023-08-20T08:54:48;26.33;66.39
71096;DHT22;58753;49.440;11.126;2023-08-20T08:57:15;26.50;65.60
71096;DHT22;58753;49.440;11.126;2023-08-20T08:59:41;26.70;65.14
71096;DHT22;58753;49.440;11.126;2023-08-20T09:02:12;26.73;64.77
71096;DHT22;58753;49.440;11.126;2023-08-20T09:04:41;26.72;64.77
71096;DHT22;58753;49.440;11.126;2023-08-20T09:07:14;26.79;64.00
71096;DHT22;58753;49.440;11.126;2023-08-20T09:09:46;26.83;63.65
71096;DHT22;58753;49.440;11.126;2023-08-20T09:12:19;26.89;63.36
71096;DHT22;58753;49.440;11.126;2023-08-20T09:14:51;26.96;63.04
71096;DHT22;58753;49.440;11.126;2023-08-20T09:17:17;26.96;62.94
71096;DHT22;58753;49.440;11.126;2023-08-20T09:19:48;26.99;63.05
71096;DHT22;58753;49.440;11.126;2023-08-20T09:22:14;27.11;62.87
71096;DHT22;58753;49.440;11.126;2023-08-20T09:24:44;27.23;61.83
71096;DHT22;58753;49.440;11.126;2023-08-20T09:27:11;27.30;61.55
71096;DHT22;58753;49.440;11.126;2023-08-20T09:29:48;27.38;61.03
71096;DHT22;58753;49.440;11.126;2023-08-20T09:32:15;27.43;60.55
71096;DHT22;58753;49.440;11.126;2023-08-20T09:34:41;27.55;60.20
71096;DHT22;58753;49.440;11.126;2023-08-20T09:37:11;27.68;59.55
71096;DHT22;58753;49.440;11.126;2023-08-20T09:39:38;27.75;59.05
71096;DHT22;58753;49.440;11.126;2023-08-20T09:42:07;27.85;58.03
71096;DHT22;58753;49.440;11.126;2023-08-20T09:44:45;27.96;57.65
71096;DHT22;58753;49.440;11.126;2023-08-20T09:47:14;28.06;57.12
71096;DHT22;58753;49.440;11.126;2023-08-20T09:49:42;28.16;56.40
71096;DHT22;58753;49.440;11.126;2023-08-20T09:52:11;28.15;55.91
71096;DHT22;58753;49.440;11.126;2023-08-20T09:57:07;28.23;54.53
71096;DHT22;58753;49.440;11.126;2023-08-20T09:59:38;28.32;54.07
71096;DHT22;58753;49.440;11.126;2023-08-20T10:02:04;28.36;54.20
71096;DHT22;58753;49.440;11.126;2023-08-20T10:04:29;28.46;53.43
71096;DHT22;58753;49.440;11.126;2023-08-20T10:06:58;28.59;53.22
71096;DHT22;58753;49.440;11.126;2023-08-20T10:09:24;28.59;53.16
71096;DHT22;58753;49.440;11.126;2023-08-20T10:11:51;28.56;53.14
71096;DHT22;58753;49.440;11.126;2023-08-20T10:14:16;28.70;53.20
71096;DHT22;58753;49.440;11.126;2023-08-20T10:16:43;28.91;51.99
71096;DHT22;58753;49.440;11.126;2023-08-20T10:19:09;29.17;51.29
71096;DHT22;58753;49.440;11.126;2023-08-20T10:21:43;29.30;50.17
71096;DHT22;58753;49.440;11.126;2023-08-20T10:24:09;29.47;49.93
71096;DHT22;58753;49.440;11.126;2023-08-20T10:26:34;29.42;50.10
71096;DHT22;58753;49.440;11.126;2023-08-20T10:32:05;29.50;49.51
71096;DHT22;58753;49.440;11.126;2023-08-20T10:34:32;29.61;49.37
71096;DHT22;58753;49.440;11.126;2023-08-20T10:37:01;29.75;48.88
71096;DHT22;58753;49.440;11.126;2023-08-20T10:39:28;29.90;48.02
71096;DHT22;58753;49.440;11.126;2023-08-20T10:45:02;30.10;48.07
71096;DHT22;58753;49.440;11.126;2023-08-20T10:47:47;30.17;48.09
71096;DHT22;58753;49.440;11.126;2023-08-20T10:50:19;30.33;47.86
71096;DHT22;58753;49.440;11.126;2023-08-20T10:52:54;30.44;47.25
71096;DHT22;58753;49.440;11.126;2023-08-20T10:55:23;30.57;46.88
71096;DHT22;58753;49.440;11.126;2023-08-20T10:57:56;30.67;47.11
71096;DHT22;58753;49.440;11.126;2023-08-20T11:00:22;30.64;46.65
71096;DHT22;58753;49.440;11.126;2023-08-20T11:02:49;30.57;46.62
71096;DHT22;58753;49.440;11.126;2023-08-20T11:05:19;30.53;47.07
71096;DHT22;58753;49.440;11.126;2023-08-20T11:07:47;30.48;47.25
71096;DHT22;58753;49.440;11.126;2023-08-20T11:10:31;30.43;47.13
71096;DHT22;58753;49.440;11.126;2023-08-20T11:12:57;30.43;47.73
71096;DHT22;58753;49.440;11.126;2023-08-20T11:15:23;30.46;46.96
71096;DHT22;58753;49.440;11.126;2023-08-20T11:17:48;30.61;46.58
71096;DHT22;58753;49.440;11.126;2023-08-20T11:20:14;30.73;46.26
71096;DHT22;58753;49.440;11.126;2023-08-20T11:22:40;30.74;46.61
71096;DHT22;58753;49.440;11.126;2023-08-20T11:25:10;30.78;46.51
71096;DHT22;58753;49.440;11.126;2023-08-20T11:27:36;30.81;47.24
71096;DHT22;58753;49.440;11.126;2023-08-20T11:30:05;30.86;47.90
71096;DHT22;58753;49.440;11.126;2023-08-20T11:32:34;30.80;47.97
71096;DHT22;58753;49.440;11.126;2023-08-20T11:34:59;30.95;48.22
71096;DHT22;58753;49.440;11.126;2023-08-20T11:37:26;31.19;48.38
71096;DHT22;58753;49.440;11.126;2023-08-20T11:39:52;31.34;47.92
71096;DHT22;58753;49.440;11.126;2023-08-20T11:42:18;31.49;47.91
71096;DHT22;58753;49.440;11.126;2023-08-20T11:44:46;31.62;46.58
71096;DHT22;58753;49.440;11.126;2023-08-20T11:47:18;31.76;45.27
71096;DHT22;58753;49.440;11.126;2023-08-20T11:49:44;31.90;44.14
71096;DHT22;58753;49.440;11.126;2023-08-20T11:52:10;32.06;44.26
71096;DHT22;58753;49.440;11.126;2023-08-20T11:54:38;32.16;43.57
71096;DHT22;58753;49.440;11.126;2023-08-20T11:57:05;32.30;44.03
71096;DHT22;58753;49.440;11.126;2023-08-20T11:59:31;32.40;43.53
71096;DHT22;58753;49.440;11.126;2023-08-20T12:01:59;32.51;43.30
71096;DHT22;58753;49.440;11.126;2023-08-20T12:04:28;32.60;42.49
71096;DHT22;58753;49.440;11.126;2023-08-20T12:07:08;32.74;42.09
71096;DHT22;58753;49.440;11.126;2023-08-20T12:09:34;32.85;41.72
71096;DHT22;58753;49.440;11.126;2023-08-20T12:12:01;32.95;41.40
71096;DHT22;58753;49.440;11.126;2023-08-20T12:14:27;33.00;41.53
71096;DHT22;58753;49.440;11.126;2023-08-20T12:16:56;32.97;42.03
71096;DHT22;58753;49.440;11.126;2023-08-20T12:19:21;33.08;42.39
71096;DHT22;58753;49.440;11.126;2023-08-20T12:21:47;33.12;42.28
71096;DHT22;58753;49.440;11.126;2023-08-20T12:24:14;33.05;41.19
71096;DHT22;58753;49.440;11.126;2023-08-20T12:26:40;33.11;41.61
71096;DHT22;58753;49.440;11.126;2023-08-20T12:29:06;33.21;42.50
71096;DHT22;58753;49.440;11.126;2023-08-20T12:31:32;33.03;42.46
71096;DHT22;58753;49.440;11.126;2023-08-20T12:33:58;33.12;42.72
71096;DHT22;58753;49.440;11.126;2023-08-20T12:36:24;32.81;42.72
71096;DHT22;58753;49.440;11.126;2023-08-20T12:38:49;32.92;43.64
71096;DHT22;58753;49.440;11.126;2023-08-20T12:41:15;33.14;43.73
71096;DHT22;58753;49.440;11.126;2023-08-20T12:43:40;33.31;42.87
71096;DHT22;58753;49.440;11.126;2023-08-20T12:46:06;33.46;42.04
71096;DHT22;58753;49.440;11.126;2023-08-20T12:48:32;33.63;42.15
71096;DHT22;58753;49.440;11.126;2023-08-20T12:50:58;33.66;41.49
71096;DHT22;58753;49.440;11.126;2023-08-20T12:53:23;33.65;42.56
71096;DHT22;58753;49.440;11.126;2023-08-20T12:55:49;33.70;41.96
71096;DHT22;58753;49.440;11.126;2023-08-20T12:58:14;33.82;40.79
71096;DHT22;58753;49.440;11.126;2023-08-20T13:00:40;33.95;40.52
71096;DHT22;58753;49.440;11.126;2023-08-20T13:03:05;33.99;39.80
71096;DHT22;58753;49.440;11.126;2023-08-20T13:05:31;33.92;39.54
71096;DHT22;58753;49.440;11.126;2023-08-20T13:07:57;34.09;40.72
71096;DHT22;58753;49.440;11.126;2023-08-20T13:10:23;33.63;40.42
71096;DHT22;58753;49.440;11.126;2023-08-20T13:12:51;33.48;41.20
71096;DHT22;58753;49.440;11.126;2023-08-20T13:15:19;33.41;41.61
71096;DHT22;58753;49.440;11.126;2023-08-20T13:17:47;33.68;42.23
71096;DHT22;58753;49.440;11.126;2023-08-20T13:20:13;33.49;41.63
71096;DHT22;58753;49.440;11.126;2023-08-20T13:22:38;33.62;42.21
71096;DHT22;58753;49.440;11.126;2023-08-20T13:25:04;33.65;41.31
71096;DHT22;58753;49.440;11.126;2023-08-20T13:27:30;33.79;41.30
71096;DHT22;58753;49.440;11.126;2023-08-20T13:29:56;33.89;42.20
71096;DHT22;58753;49.440;11.126;2023-08-20T13:32:22;33.85;42.16
71096;DHT22;58753;49.440;11.126;2023-08-20T13:34:47;33.75;42.33
71096;DHT22;58753;49.440;11.126;2023-08-20T13:37:13;33.70;42.29
71096;DHT22;58753;49.440;11.126;2023-08-20T13:39:38;33.83;42.20
71096;DHT22;58753;49.440;11.126;2023-08-20T13:42:03;33.97;41.46
71096;DHT22;58753;49.440;11.126;2023-08-20T13:44:29;34.13;40.83
71096;DHT22;58753;49.440;11.126;2023-08-20T13:46:55;34.24;41.14
71096;DHT22;58753;49.440;11.126;2023-08-20T13:49:20;34.23;39.90
71096;DHT22;58753;49.440;11.126;2023-08-20T13:51:46;34.35;40.01
71096;DHT22;58753;49.440;11.126;2023-08-20T13:54:11;34.32;40.52
71096;DHT22;58753;49.440;11.126;2023-08-20T13:56:36;34.29;41.04
71096;DHT22;58753;49.440;11.126;2023-08-20T13:59:02;34.19;41.24
71096;DHT22;58753;49.440;11.126;2023-08-20T14:01:28;34.16;41.52
71096;DHT22;58753;49.440;11.126;2023-08-20T14:03:53;34.15;42.32
71096;DHT22;58753;49.440;11.126;2023-08-20T14:06:19;34.05;42.14
71096;DHT22;58753;49.440;11.126;2023-08-20T14:08:45;34.03;42.17
71096;DHT22;58753;49.440;11.126;2023-08-20T14:11:10;33.92;41.25
71096;DHT22;58753;49.440;11.126;2023-08-20T14:13:36;33.82;41.67
71096;DHT22;58753;49.440;11.126;2023-08-20T14:16:02;33.80;42.53
71096;DHT22;58753;49.440;11.126;2023-08-20T14:18:27;33.82;41.98
71096;DHT22;58753;49.440;11.126;2023-08-20T14:20:53;33.92;41.52
71096;DHT22;58753;49.440;11.126;2023-08-20T14:23:22;34.09;40.84
71096;DHT22;58753;49.440;11.126;2023-08-20T14:25:47;34.26;41.20
71096;DHT22;58753;49.440;11.126;2023-08-20T14:28:13;34.41;40.74
71096;DHT22;58753;49.440;11.126;2023-08-20T14:30:38;34.48;39.82
71096;DHT22;58753;49.440;11.126;2023-08-20T14:33:05;34.58;40.18
71096;DHT22;58753;49.440;11.126;2023-08-20T14:35:32;34.67;40.68
71096;DHT22;58753;49.440;11.126;2023-08-20T14:38:13;34.64;39.03
71096;DHT22;58753;49.440;11.126;2023-08-20T14:40:42;34.74;38.91
71096;DHT22;58753;49.440;11.126;2023-08-20T14:43:07;34.83;40.10
71096;DHT22;58753;49.440;11.126;2023-08-20T14:45:37;34.58;39.57
71096;DHT22;58753;49.440;11.126;2023-08-20T14:48:17;34.46;39.07
71096;DHT22;58753;49.440;11.126;2023-08-20T14:50:42;34.46;40.08
71096;DHT22;58753;49.440;11.126;2023-08-20T14:53:08;34.41;40.01
71096;DHT22;58753;49.440;11.126;2023-08-20T14:55:34;34.40;40.05
71096;DHT22;58753;49.440;11.126;2023-08-20T14:57:59;34.41;40.19
71096;DHT22;58753;49.440;11.126;2023-08-20T15:00:25;34.29;39.20
71096;DHT22;58753;49.440;11.126;2023-08-20T15:02:50;34.29;38.55
71096;DHT22;58753;49.440;11.126;2023-08-20T15:05:16;34.39;38.37
71096;DHT22;58753;49.440;11.126;2023-08-20T15:07:42;34.46;38.82
71096;DHT22;58753;49.440;11.126;2023-08-20T15:10:08;34.47;39.09
71096;DHT22;58753;49.440;11.126;2023-08-20T15:12:42;34.36;39.48
71096;DHT22;58753;49.440;11.126;2023-08-20T15:15:11;34.23;39.68
71096;DHT22;58753;49.440;11.126;2023-08-20T15:17:37;34.15;38.73
71096;DHT22;58753;49.440;11.126;2023-08-20T15:20:08;34.07;39.29
71096;DHT22;58753;49.440;11.126;2023-08-20T15:22:50;33.99;40.75
71096;DHT22;58753;49.440;11.126;2023-08-20T15:25:16;33.76;40.64